sensor_id;sensor_type;location;lat;lon;timestamp;pressure;altitude;pressure_sealevel;temperature;humidity
42945;BME280;28584;42.636;23.294;2023-02-13T00:01:08;105775.97;;;-3.75;100.00
42945;BME280;28584;42.636;23.294;2023-02-13T00:03:33;105188.78;;;-3.70;100.00
42945;BME280;28584;42.636;23.294;2023-02-13T00:05:59;104098.13;;;-3.58;100.00
42945;BME280;28584;42.636;23.294;2023-02-13T00:08:24;103665.41;;;-3.56;100.00
42945;BME280;28584;42.636;23.294;2023-02-13T00:10:50;103181.69;;;-3.51;100.00
42945;BME280;28584;42.636;23.294;2023-02-13T00:13:15;101900.72;;;-3.37;100.00
42945;BME280;28584;42.636;23.294;2023-02-13T00:15:40;101100.81;;;-3.27;100.00
42945;BME280;28584;42.636;23.294;2023-02-13T00:18:06;100303.34;;;-3.24;100.00
42945;BME280;28584;42.636;23.294;2023-02-13T00:20:31;100125.34;;;-3.27;100.00
42945;BME280;28584;42.636;23.294;2023-02-13T00:22:58;99712.31;;;-3.24;100.00
42945;BME280;28584;42.636;23.294;2023-02-13T00:25:23;99170.75;;;-3.20;100.00
42945;BME280;28584;42.636;23.294;2023-02-13T00:27:52;99139.88;;;-3.23;100.00
42945;BME280;28584;42.636;23.294;2023-02-13T00:30:21;99410.13;;;-3.37;100.00
42945;BME280;28584;42.636;23.294;2023-02-13T00:32:47;99545.84;;;-3.39;100.00
42945;BME280;28584;42.636;23.294;2023-02-13T00:35:12;99778.81;;;-3.42;100.00
42945;BME280;28584;42.636;23.294;2023-02-13T00:37:37;99022.69;;;-3.32;100.00
42945;BME280;28584;42.636;23.294;2023-02-13T00:40:03;98461.03;;;-3.24;100.00
42945;BME280;28584;42.636;23.294;2023-02-13T00:42:29;98678.25;;;-3.29;100.00
42945;BME280;28584;42.636;23.294;2023-02-13T00:44:54;98339.50;;;-3.22;100.00
42945;BME280;28584;42.636;23.294;2023-02-13T00:47:20;98300.91;;;-3.26;100.00
42945;BME280;28584;42.636;23.294;2023-02-13T00:49:45;98757.28;;;-3.39;100.00
42945;BME280;28584;42.636;23.294;2023-02-13T00:52:11;99382.34;;;-3.49;100.00
42945;BME280;28584;42.636;23.294;2023-02-13T00:54:36;99982.13;;;-3.65;100.00
42945;BME280;28584;42.636;23.294;2023-02-13T00:57:02;100838.28;;;-3.72;100.00
42945;BME280;28584;42.636;23.294;2023-02-13T00:59:27;101345.91;;;-3.79;100.00
42945;BME280;28584;42.636;23.294;2023-02-13T01:01:53;101396.69;;;-3.79;100.00
42945;BME280;28584;42.636;23.294;2023-02-13T01:04:19;101802.47;;;-3.82;100.00
42945;BME280;28584;42.636;23.294;2023-02-13T01:06:44;101526.00;;;-3.80;100.00
42945;BME280;28584;42.636;23.294;2023-02-13T01:09:10;101837.63;;;-3.87;100.00
42945;BME280;28584;42.636;23.294;2023-02-13T01:11:35;102017.13;;;-3.91;100.00
42945;BME280;28584;42.636;23.294;2023-02-13T01:14:01;101719.16;;;-3.87;100.00
42945;BME280;28584;42.636;23.294;2023-02-13T01:16:26;101441.91;;;-3.85;100.00
42945;BME280;28584;42.636;23.294;2023-02-13T01:18:51;100211.16;;;-3.65;100.00
42945;BME280;28584;42.636;23.294;2023-02-13T01:21:20;99974.28;;;-3.66;100.00
42945;BME280;28584;42.636;23.294;2023-02-13T01:23:46;99582.94;;;-3.64;100.00
42945;BME280;28584;42.636;23.294;2023-02-13T01:26:19;98634.47;;;-3.52;100.00
42945;BME280;28584;42.636;23.294;2023-02-13T01:28:45;98263.06;;;-3.52;100.00
42945;BME280;28584;42.636;23.294;2023-02-13T01:31:11;97713.31;;;-3.50;100.00
42945;BME280;28584;42.636;23.294;2023-02-13T01:33:36;96953.16;;;-3.36;100.00
42945;BME280;28584;42.636;23.294;2023-02-13T01:36:07;96283.72;;;-3.32;100.00
42945;BME280;28584;42.636;23.294;2023-02-13T01:38:33;95911.97;;;-3.34;100.00
42945;BME280;28584;42.636;23.294;2023-02-13T01:40:58;95839.34;;;-3.36;100.00
42945;BME280;28584;42.636;23.294;2023-02-13T01:43:41;96036.00;;;-3.45;100.00
42945;BME280;28584;42.636;23.294;2023-02-13T01:46:06;96047.31;;;-3.53;100.00
42945;BME280;28584;42.636;23.294;2023-02-13T01:48:32;95933.75;;;-3.46;100.00
42945;BME280;28584;42.636;23.294;2023-02-13T01:51:01;95674.72;;;-3.46;100.00
42945;BME280;28584;42.636;23.294;2023-02-13T01:53:34;95426.59;;;-3.42;100.00
42945;BME280;28584;42.636;23.294;2023-02-13T01:56:10;94628.94;;;-3.28;100.00
42945;BME280;28584;42.636;23.294;2023-02-13T01:58:39;94052.47;;;-3.09;100.00
42945;BME280;28584;42.636;23.294;2023-02-13T02:01:07;93971.25;;;-3.08;100.00
42945;BME280;28584;42.636;23.294;2023-02-13T02:03:55;93705.25;;;-2.97;100.00
42945;BME280;28584;42.636;23.294;2023-02-13T02:06:29;93635.97;;;-2.90;100.00
42945;BME280;28584;42.636;23.294;2023-02-13T02:08:59;93763.94;;;-2.85;100.00
42945;BME280;28584;42.636;23.294;2023-02-13T02:12:05;93534.78;;;-2.76;100.00
42945;BME280;28584;42.636;23.294;2023-02-13T02:14:31;93632.16;;;-2.73;100.00
42945;BME280;28584;42.636;23.294;2023-02-13T02:16:57;93534.91;;;-2.69;100.00
42945;BME280;28584;42.636;23.294;2023-02-13T02:48:04;95647.38;;;-3.11;100.00
42945;BME280;28584;42.636;23.294;2023-02-13T02:54:00;96704.47;;;-3.40;100.00
42945;BME280;28584;42.636;23.294;2023-02-13T02:56:49;96913.06;;;-3.51;100.00
42945;BME280;28584;42.636;23.294;2023-02-13T02:59:16;97001.97;;;-3.51;100.00
42945;BME280;28584;42.636;23.294;2023-02-13T03:02:04;96899.19;;;-3.48;100.00
42945;BME280;28584;42.636;23.294;2023-02-13T03:04:54;96759.22;;;-3.32;100.00
42945;BME280;28584;42.636;23.294;2023-02-13T03:07:39;96525.41;;;-3.15;100.00
42945;BME280;28584;42.636;23.294;2023-02-13T03:10:09;97081.81;;;-3.08;100.00
42945;BME280;28584;42.636;23.294;2023-02-13T03:13:12;97690.63;;;-3.15;100.00
42945;BME280;28584;42.636;23.294;2023-02-13T03:15:46;97967.41;;;-3.07;100.00
42945;BME280;28584;42.636;23.294;2023-02-13T03:18:35;98570.41;;;-3.23;100.00
42945;BME280;28584;42.636;23.294;2023-02-13T03:29:59;99814.72;;;-3.30;100.00
42945;BME280;28584;42.636;23.294;2023-02-13T03:38:21;101168.63;;;-3.36;100.00
42945;BME280;28584;42.636;23.294;2023-02-13T03:41:03;101202.50;;;-3.19;100.00
42945;BME280;28584;42.636;23.294;2023-02-13T03:44:22;101708.72;;;-3.16;100.00
42945;BME280;28584;42.636;23.294;2023-02-13T03:46:50;102111.59;;;-3.12;100.00
42945;BME280;28584;42.636;23.294;2023-02-13T03:49:46;102355.03;;;-3.10;100.00
42945;BME280;28584;42.636;23.294;2023-02-13T03:55:15;102908.44;;;-3.12;100.00
42945;BME280;28584;42.636;23.294;2023-02-13T03:58:23;103512.09;;;-3.18;100.00
42945;BME280;28584;42.636;23.294;2023-02-13T04:01:11;104130.34;;;-3.29;100.00
42945;BME280;28584;42.636;23.294;2023-02-13T04:03:57;104235.34;;;-3.39;100.00
42945;BME280;28584;42.636;23.294;2023-02-13T04:06:35;104548.50;;;-3.56;100.00
42945;BME280;28584;42.636;23.294;2023-02-13T04:09:03;104536.38;;;-3.63;100.00
42945;BME280;28584;42.636;23.294;2023-02-13T04:13:58;104160.34;;;-3.70;100.00
42945;BME280;28584;42.636;23.294;2023-02-13T04:16:40;103991.78;;;-3.70;100.00
42945;BME280;28584;42.636;23.294;2023-02-13T04:19:08;103994.28;;;-3.67;100.00
42945;BME280;28584;42.636;23.294;2023-02-13T04:21:38;104149.63;;;-3.70;100.00
42945;BME280;28584;42.636;23.294;2023-02-13T04:24:05;104424.59;;;-3.75;100.00
42945;BME280;28584;42.636;23.294;2023-02-13T04:26:39;104182.69;;;-3.71;100.00
42945;BME280;28584;42.636;23.294;2023-02-13T04:29:06;104256.97;;;-3.76;100.00
42945;BME280;28584;42.636;23.294;2023-02-13T04:31:31;104282.97;;;-3.78;100.00
42945;BME280;28584;42.636;23.294;2023-02-13T04:33:57;104230.41;;;-3.79;100.00
42945;BME280;28584;42.636;23.294;2023-02-13T04:36:22;104420.16;;;-3.76;100.00
42945;BME280;28584;42.636;23.294;2023-02-13T04:38:49;104212.44;;;-3.77;100.00
42945;BME280;28584;42.636;23.294;2023-02-13T04:41:14;104519.59;;;-3.67;100.00
42945;BME280;28584;42.636;23.294;2023-02-13T04:43:40;104383.44;;;-3.56;100.00
42945;BME280;28584;42.636;23.294;2023-02-13T04:46:05;104715.00;;;-3.48;100.00
42945;BME280;28584;42.636;23.294;2023-02-13T04:48:31;104750.03;;;-3.34;100.00
42945;BME280;28584;42.636;23.294;2023-02-13T04:50:56;105055.53;;;-3.40;100.00
42945;BME280;28584;42.636;23.294;2023-02-13T04:53:22;104927.66;;;-3.35;100.00
42945;BME280;28584;42.636;23.294;2023-02-13T04:55:47;104855.03;;;-3.28;100.00
42945;BME280;28584;42.636;23.294;2023-02-13T04:58:12;104666.13;;;-3.16;100.00
42945;BME280;28584;42.636;23.294;2023-02-13T05:00:38;104782.25;;;-3.17;100.00
42945;BME280;28584;42.636;23.294;2023-02-13T05:03:08;104640.72;;;-3.08;100.00
42945;BME280;28584;42.636;23.294;2023-02-13T05:05:34;104657.84;;;-2.93;100.00
42945;BME280;28584;42.636;23.294;2023-02-13T05:08:00;104110.97;;;-2.87;100.00
42945;BME280;28584;42.636;23.294;2023-02-13T05:10:26;103672.72;;;-2.77;100.00
42945;BME280;28584;42.636;23.294;2023-02-13T05:12:52;103318.31;;;-2.79;100.00
42945;BME280;28584;42.636;23.294;2023-02-13T05:15:18;102811.34;;;-2.70;100.00
42945;BME280;28584;42.636;23.294;2023-02-13T05:17:44;102257.56;;;-2.68;100.00
42945;BME280;28584;42.636;23.294;2023-02-13T05:20:11;101799.09;;;-2.63;100.00
42945;BME280;28584;42.636;23.294;2023-02-13T05:22:36;101189.34;;;-2.63;100.00
42945;BME280;28584;42.636;23.294;2023-02-13T05:25:20;100832.22;;;-2.70;100.00
42945;BME280;28584;42.636;23.294;2023-02-13T05:27:46;100291.59;;;-2.71;100.00
42945;BME280;28584;42.636;23.294;2023-02-13T05:30:12;99956.22;;;-2.72;100.00
42945;BME280;28584;42.636;23.294;2023-02-13T05:32:37;99532.25;;;-2.78;100.00
42945;BME280;28584;42.636;23.294;2023-02-13T05:35:04;99265.75;;;-2.85;100.00
42945;BME280;28584;42.636;23.294;2023-02-13T05:37:29;98814.38;;;-2.78;100.00
42945;BME280;28584;42.636;23.294;2023-02-13T05:39:55;98286.97;;;-2.70;100.00
42945;BME280;28584;42.636;23.294;2023-02-13T05:42:20;97855.06;;;-2.62;100.00
42945;BME280;28584;42.636;23.294;2023-02-13T05:44:46;97404.38;;;-2.50;100.00
42945;BME280;28584;42.636;23.294;2023-02-13T05:47:11;97001.44;;;-2.46;100.00
42945;BME280;28584;42.636;23.294;2023-02-13T05:49:36;96759.84;;;-2.41;100.00
42945;BME280;28584;42.636;23.294;2023-02-13T05:52:02;96277.38;;;-2.32;100.00
42945;BME280;28584;42.636;23.294;2023-02-13T05:54:27;96197.34;;;-2.28;100.00
42945;BME280;28584;42.636;23.294;2023-02-13T05:56:53;96021.66;;;-2.19;100.00
42945;BME280;28584;42.636;23.294;2023-02-13T05:59:18;95959.47;;;-2.11;100.00
42945;BME280;28584;42.636;23.294;2023-02-13T06:01:44;96217.69;;;-2.09;100.00
42945;BME280;28584;42.636;23.294;2023-02-13T06:04:09;96164.59;;;-2.02;100.00
42945;BME280;28584;42.636;23.294;2023-02-13T06:06:34;96158.06;;;-1.96;100.00
42945;BME280;28584;42.636;23.294;2023-02-13T06:09:00;96701.03;;;-1.98;100.00
42945;BME280;28584;42.636;23.294;2023-02-13T06:11:25;97087.66;;;-1.89;100.00
42945;BME280;28584;42.636;23.294;2023-02-13T06:13:51;97418.69;;;-1.83;100.00
42945;BME280;28584;42.636;23.294;2023-02-13T06:16:16;98075.66;;;-1.76;100.00
42945;BME280;28584;42.636;23.294;2023-02-13T06:18:41;98432.81;;;-1.64;100.00
42945;BME280;28584;42.636;23.294;2023-02-13T06:21:07;99143.91;;;-1.57;100.00
42945;BME280;28584;42.636;23.294;2023-02-13T06:23:33;100198.53;;;-1.56;100.00
42945;BME280;28584;42.636;23.294;2023-02-13T06:26:06;101664.28;;;-1.59;100.00
42945;BME280;28584;42.636;23.294;2023-02-13T06:28:32;103229.97;;;-1.63;100.00
42945;BME280;28584;42.636;23.294;2023-02-13T06:30:58;104103.41;;;-1.51;100.00
42945;BME280;28584;42.636;23.294;2023-02-13T06:33:23;105853.41;;;-1.46;100.00
42945;BME280;28584;42.636;23.294;2023-02-13T06:35:49;108170.09;;;-1.52;100.00
42945;BME280;28584;42.636;23.294;2023-02-13T06:38:14;109974.66;;;-1.41;100.00
42945;BME280;28584;42.636;23.294;2023-02-13T06:40:44;112400.88;;;-1.43;100.00
42945;BME280;28584;42.636;23.294;2023-02-13T06:43:09;114557.22;;;-1.39;100.00
42945;BME280;28584;42.636;23.294;2023-02-13T06:45:36;116983.53;;;-1.37;100.00
42945;BME280;28584;42.636;23.294;2023-02-13T06:48:01;118702.88;;;-1.27;100.00
42945;BME280;28584;42.636;23.294;2023-02-13T06:50:27;121893.31;;;-1.32;100.00
42945;BME280;28584;42.636;23.294;2023-02-13T06:52:52;124978.03;;;-1.24;100.00
42945;BME280;28584;42.636;23.294;2023-02-13T06:55:18;128996.94;;;-1.16;100.00
42945;BME280;28584;42.636;23.294;2023-02-13T06:57:45;134215.25;;;-1.17;100.00
42945;BME280;28584;42.636;23.294;2023-02-13T07:00:12;138114.44;;;-1.05;100.00
42945;BME280;28584;42.636;23.294;2023-02-13T07:02:42;142502.38;;;-0.91;100.00
42945;BME280;28584;42.636;23.294;2023-02-13T07:05:07;148263.50;;;-0.91;100.00
42945;BME280;28584;42.636;23.294;2023-02-13T07:07:37;152399.22;;;-0.95;100.00
42945;BME280;28584;42.636;23.294;2023-02-13T07:10:04;155430.47;;;-0.86;100.00
42945;BME280;28584;42.636;23.294;2023-02-13T07:12:34;157558.22;;;-0.71;100.00
42945;BME280;28584;42.636;23.294;2023-02-13T07:15:03;158398.22;;;-0.62;100.00
42945;BME280;28584;42.636;23.294;2023-02-13T07:17:29;158443.25;;;-0.45;100.00
42945;BME280;28584;42.636;23.294;2023-02-13T07:19:55;158443.25;;;-0.45;100.00
42945;BME280;28584;42.636;23.294;2023-02-13T07:22:21;158427.34;;;-0.51;100.00
42945;BME280;28584;42.636;23.294;2023-02-13T07:24:46;158469.72;;;-0.35;100.00
42945;BME280;28584;42.636;23.294;2023-02-13T07:27:11;158469.72;;;-0.35;100.00
42945;BME280;28584;42.636;23.294;2023-02-13T07:29:37;158469.72;;;-0.35;100.00
42945;BME280;28584;42.636;23.294;2023-02-13T07:32:02;158545.22;;;-0.06;100.00
42945;BME280;28584;42.636;23.294;2023-02-13T07:34:28;158591.53;;;0.12;100.00
42945;BME280;28584;42.636;23.294;2023-02-13T07:36:53;158615.41;;;0.21;100.00
42945;BME280;28584;42.636;23.294;2023-02-13T07:39:19;158716.09;;;0.59;100.00
42945;BME280;28584;42.636;23.294;2023-02-13T07:41:44;158716.09;;;0.59;100.00
42945;BME280;28584;42.636;23.294;2023-02-13T07:44:10;158682.97;;;0.46;100.00
42945;BME280;28584;42.636;23.294;2023-02-13T07:46:35;158616.75;;;0.21;100.00
42945;BME280;28584;42.636;23.294;2023-02-13T07:49:01;158599.50;;;0.15;100.00
42945;BME280;28584;42.636;23.294;2023-02-13T07:51:26;158627.31;;;0.25;100.00
42945;BME280;28584;42.636;23.294;2023-02-13T07:53:53;158530.66;;;-0.12;100.00
42945;BME280;28584;42.636;23.294;2023-02-13T07:56:19;158591.53;;;0.12;100.00
42945;BME280;28584;42.636;23.294;2023-02-13T07:58:44;158584.94;;;0.09;100.00
42945;BME280;28584;42.636;23.294;2023-02-13T08:01:12;158745.22;;;0.70;100.00
42945;BME280;28584;42.636;23.294;2023-02-13T08:03:38;158904.28;;;1.30;100.00
42945;BME280;28584;42.636;23.294;2023-02-13T08:06:04;158914.91;;;1.34;100.00
42945;BME280;28584;42.636;23.294;2023-02-13T08:08:30;158888.41;;;1.24;100.00
42945;BME280;28584;42.636;23.294;2023-02-13T08:10:56;158856.56;;;1.12;100.00
42945;BME280;28584;42.636;23.294;2023-02-13T08:13:45;158782.34;;;0.84;100.00
42945;BME280;28584;42.636;23.294;2023-02-13T08:16:11;158892.38;;;1.25;100.00
42945;BME280;28584;42.636;23.294;2023-02-13T08:18:36;158970.59;;;1.55;100.00
42945;BME280;28584;42.636;23.294;2023-02-13T08:21:02;159007.75;;;1.69;100.00
42945;BME280;28584;42.636;23.294;2023-02-13T08:23:27;158941.38;;;1.44;100.00
42945;BME280;28584;42.636;23.294;2023-02-13T08:25:53;158938.75;;;1.43;100.00
42945;BME280;28584;42.636;23.294;2023-02-13T08:28:18;158702.81;;;0.54;100.00
42945;BME280;28584;42.636;23.294;2023-02-13T08:30:43;158631.31;;;0.27;100.00
42945;BME280;28584;42.636;23.294;2023-02-13T08:33:09;158636.56;;;0.29;100.00
42945;BME280;28584;42.636;23.294;2023-02-13T08:35:34;158672.38;;;0.42;100.00
42945;BME280;28584;42.636;23.294;2023-02-13T08:38:01;158745.22;;;0.70;100.00
42945;BME280;28584;42.636;23.294;2023-02-13T08:40:27;158730.66;;;0.64;100.00
42945;BME280;28584;42.636;23.294;2023-02-13T08:42:58;158753.19;;;0.73;100.00
42945;BME280;28584;42.636;23.294;2023-02-13T08:45:24;158700.16;;;0.53;100.00
42945;BME280;28584;42.636;23.294;2023-02-13T08:47:49;158732.00;;;0.65;100.00
42945;BME280;28584;42.636;23.294;2023-02-13T08:50:15;158525.34;;;-0.14;100.00
42945;BME280;28584;42.636;23.294;2023-02-13T08:52:40;158545.22;;;-0.06;100.00
42945;BME280;28584;42.636;23.294;2023-02-13T08:55:06;158724.03;;;0.62;100.00
42945;BME280;28584;42.636;23.294;2023-02-13T08:57:31;158928.16;;;1.39;100.00
42945;BME280;28584;42.636;23.294;2023-02-13T08:59:57;158949.34;;;1.47;100.00
42945;BME280;28584;42.636;23.294;2023-02-13T09:02:22;158967.91;;;1.54;100.00
42945;BME280;28584;42.636;23.294;2023-02-13T09:04:47;159101.88;;;2.04;100.00
42945;BME280;28584;42.636;23.294;2023-02-13T09:07:13;159031.56;;;1.78;100.00
42945;BME280;28584;42.636;23.294;2023-02-13T09:09:38;159056.81;;;1.87;100.00
42945;BME280;28584;42.636;23.294;2023-02-13T09:12:04;158908.25;;;1.31;100.00
42945;BME280;28584;42.636;23.294;2023-02-13T09:14:29;159005.06;;;1.68;100.00
42945;BME280;28584;42.636;23.294;2023-02-13T09:16:55;159087.28;;;1.99;100.00
42945;BME280;28584;42.636;23.294;2023-02-13T09:19:20;159039.53;;;1.81;100.00
42945;BME280;28584;42.636;23.294;2023-02-13T09:21:46;159150.97;;;2.23;100.00
42945;BME280;28584;42.636;23.294;2023-02-13T09:24:11;159239.94;;;2.56;100.00
42945;BME280;28584;42.636;23.294;2023-02-13T09:26:37;159429.78;;;3.28;100.00
42945;BME280;28584;42.636;23.294;2023-02-13T09:29:02;159666.22;;;4.17;100.00
42945;BME280;28584;42.636;23.294;2023-02-13T09:31:27;159550.63;;;3.74;100.00
42945;BME280;28584;42.636;23.294;2023-02-13T09:33:53;159387.28;;;3.12;100.00
42945;BME280;28584;42.636;23.294;2023-02-13T09:36:20;159342.13;;;2.95;100.00
42945;BME280;28584;42.636;23.294;2023-02-13T09:38:47;159063.44;;;1.90;100.00
42945;BME280;28584;42.636;23.294;2023-02-13T09:41:21;159005.06;;;1.68;100.00
42945;BME280;28584;42.636;23.294;2023-02-13T09:47:08;159066.09;;;1.91;100.00
42945;BME280;28584;42.636;23.294;2023-02-13T09:49:41;159161.59;;;2.27;100.00
42945;BME280;28584;42.636;23.294;2023-02-13T09:52:08;159161.59;;;2.27;100.00
42945;BME280;28584;42.636;23.294;2023-02-13T09:54:34;159201.44;;;2.42;100.00
42945;BME280;28584;42.636;23.294;2023-02-13T09:57:01;159002.41;;;1.67;100.00
42945;BME280;28584;42.636;23.294;2023-02-13T10:05:13;158826.06;;;1.00;100.00
42945;BME280;28584;42.636;23.294;2023-02-13T10:10:31;158844.63;;;1.07;100.00
42945;BME280;28584;42.636;23.294;2023-02-13T10:16:11;158861.88;;;1.14;100.00
42945;BME280;28584;42.636;23.294;2023-02-13T10:18:58;158876.47;;;1.19;100.00
42945;BME280;28584;42.636;23.294;2023-02-13T10:21:39;158803.53;;;0.92;100.00
42945;BME280;28584;42.636;23.294;2023-02-13T10:24:13;158873.81;;;1.18;100.00
42945;BME280;28584;42.636;23.294;2023-02-13T10:26:46;158893.66;;;1.26;100.00
42945;BME280;28584;42.636;23.294;2023-02-13T10:29:21;158916.22;;;1.34;100.00
42945;BME280;28584;42.636;23.294;2023-02-13T10:32:09;158953.34;;;1.48;100.00
42945;BME280;28584;42.636;23.294;2023-02-13T10:34:44;158888.41;;;1.24;100.00
42945;BME280;28584;42.636;23.294;2023-02-13T10:37:19;158953.34;;;1.48;100.00
42945;BME280;28584;42.636;23.294;2023-02-13T10:39:47;158942.75;;;1.44;100.00
42945;BME280;28584;42.636;23.294;2023-02-13T10:42:22;158949.34;;;1.47;100.00
42945;BME280;28584;42.636;23.294;2023-02-13T10:50:22;158928.16;;;1.39;100.00
42945;BME280;28584;42.636;23.294;2023-02-13T10:56:04;159010.38;;;1.70;100.00
42945;BME280;28584;42.636;23.294;2023-02-13T11:04:16;158982.50;;;1.59;100.00
42945;BME280;28584;42.636;23.294;2023-02-13T11:07:03;159010.38;;;1.70;100.00
42945;BME280;28584;42.636;23.294;2023-02-13T11:09:35;159047.50;;;1.84;100.00
42945;BME280;28584;42.636;23.294;2023-02-13T11:12:34;159086.00;;;1.98;100.00
42945;BME280;28584;42.636;23.294;2023-02-13T11:15:01;159097.94;;;2.03;100.00
42945;BME280;28584;42.636;23.294;2023-02-13T11:17:33;159139.06;;;2.18;100.00
42945;BME280;28584;42.636;23.294;2023-02-13T11:22:50;159093.97;;;2.01;100.00
42945;BME280;28584;42.636;23.294;2023-02-13T11:27:45;159135.09;;;2.17;100.00
42945;BME280;28584;42.636;23.294;2023-02-13T11:30:31;159153.66;;;2.24;100.00
42945;BME280;28584;42.636;23.294;2023-02-13T11:33:08;159193.47;;;2.39;100.00
42945;BME280;28584;42.636;23.294;2023-02-13T11:35:46;159196.09;;;2.40;100.00
42945;BME280;28584;42.636;23.294;2023-02-13T11:40:41;159254.53;;;2.62;100.00
42945;BME280;28584;42.636;23.294;2023-02-13T11:43:27;159257.16;;;2.63;100.00
42945;BME280;28584;42.636;23.294;2023-02-13T11:46:09;159318.25;;;2.86;100.00
42945;BME280;28584;42.636;23.294;2023-02-13T11:48:37;159270.41;;;2.68;100.00
42945;BME280;28584;42.636;23.294;2023-02-13T11:51:03;159281.03;;;2.72;100.00
42945;BME280;28584;42.636;23.294;2023-02-13T11:53:37;159308.94;;;2.82;100.00
42945;BME280;28584;42.636;23.294;2023-02-13T11:56:13;159344.75;;;2.96;100.00
42945;BME280;28584;42.636;23.294;2023-02-13T11:58:40;159336.84;;;2.93;100.00
42945;BME280;28584;42.636;23.294;2023-02-13T12:06:29;159417.81;;;3.24;100.00
42945;BME280;28584;42.636;23.294;2023-02-13T12:08:55;159385.94;;;3.12;100.00
42945;BME280;28584;42.636;23.294;2023-02-13T12:14:03;159459.00;;;3.39;100.00
42945;BME280;28584;42.636;23.294;2023-02-13T12:16:34;159451.03;;;3.36;100.00
42945;BME280;28584;42.636;23.294;2023-02-13T12:19:05;159478.94;;;3.47;100.00
42945;BME280;28584;42.636;23.294;2023-02-13T12:26:43;159532.03;;;3.67;100.00
42945;BME280;28584;42.636;23.294;2023-02-13T12:32:31;159451.03;;;3.36;100.00
42945;BME280;28584;42.636;23.294;2023-02-13T12:37:58;159466.97;;;3.42;100.00
42945;BME280;28584;42.636;23.294;2023-02-13T12:43:23;159518.78;;;3.62;100.00
42945;BME280;28584;42.636;23.294;2023-02-13T12:57:49;159602.44;;;3.93;93.61
42945;BME280;28584;42.636;23.294;2023-02-13T13:10:58;159585.19;;;3.87;94.79
42945;BME280;28584;42.636;23.294;2023-02-13T13:13:45;159605.13;;;3.94;95.21
42945;BME280;28584;42.636;23.294;2023-02-13T13:16:40;159589.19;;;3.88;91.88
42945;BME280;28584;42.636;23.294;2023-02-13T13:27:23;159601.16;;;3.93;89.83
42945;BME280;28584;42.636;23.294;2023-02-13T13:29:57;159589.19;;;3.88;89.53
42945;BME280;28584;42.636;23.294;2023-02-13T13:32:24;159561.25;;;3.78;89.67
42945;BME280;28584;42.636;23.294;2023-02-13T13:34:50;159602.44;;;3.93;92.33
42945;BME280;28584;42.636;23.294;2023-02-13T13:46:17;159613.13;;;3.97;91.19
42945;BME280;28584;42.636;23.294;2023-02-13T13:51:30;159606.44;;;3.95;93.62
42945;BME280;28584;42.636;23.294;2023-02-13T14:07:48;159565.25;;;3.79;94.70
42945;BME280;28584;42.636;23.294;2023-02-13T14:12:47;159540.00;;;3.70;97.79
42945;BME280;28584;42.636;23.294;2023-02-13T14:25:50;159427.09;;;3.27;100.00
42945;BME280;28584;42.636;23.294;2023-02-13T14:28:33;159424.44;;;3.26;100.00
42945;BME280;28584;42.636;23.294;2023-02-13T14:31:08;159409.84;;;3.21;100.00
42945;BME280;28584;42.636;23.294;2023-02-13T14:33:36;159371.31;;;3.06;100.00
42945;BME280;28584;42.636;23.294;2023-02-13T14:36:05;159370.03;;;3.06;100.00
42945;BME280;28584;42.636;23.294;2023-02-13T14:38:33;159310.28;;;2.83;100.00
42945;BME280;28584;42.636;23.294;2023-02-13T14:40:59;159285.03;;;2.73;100.00
42945;BME280;28584;42.636;23.294;2023-02-13T14:46:35;159278.41;;;2.71;100.00
42945;BME280;28584;42.636;23.294;2023-02-13T14:49:12;159274.41;;;2.69;100.00
42945;BME280;28584;42.636;23.294;2023-02-13T14:51:44;159259.81;;;2.64;100.00
42945;BME280;28584;42.636;23.294;2023-02-13T14:56:43;159224.00;;;2.50;100.00
42945;BME280;28584;42.636;23.294;2023-02-13T14:59:16;159213.38;;;2.46;100.00
42945;BME280;28584;42.636;23.294;2023-02-13T15:01:47;159201.44;;;2.42;100.00
42945;BME280;28584;42.636;23.294;2023-02-13T15:04:37;159174.88;;;2.32;100.00
42945;BME280;28584;42.636;23.294;2023-02-13T15:07:01;159168.25;;;2.29;100.00
42945;BME280;28584;42.636;23.294;2023-02-13T15:11:57;159145.69;;;2.21;100.00
42945;BME280;28584;42.636;23.294;2023-02-13T15:14:29;159133.75;;;2.16;100.00
42945;BME280;28584;42.636;23.294;2023-02-13T15:17:03;159111.19;;;2.08;100.00
42945;BME280;28584;42.636;23.294;2023-02-13T15:19:31;159111.19;;;2.08;100.00
42945;BME280;28584;42.636;23.294;2023-02-13T15:22:00;159111.19;;;2.08;100.00
42945;BME280;28584;42.636;23.294;2023-02-13T15:24:34;159100.59;;;2.04;100.00
42945;BME280;28584;42.636;23.294;2023-02-13T15:27:02;159109.84;;;2.07;100.00
42945;BME280;28584;42.636;23.294;2023-02-13T15:29:28;159104.56;;;2.05;100.00
42945;BME280;28584;42.636;23.294;2023-02-13T15:31:54;159097.94;;;2.03;100.00
42945;BME280;28584;42.636;23.294;2023-02-13T15:34:28;159092.63;;;2.01;100.00
42945;BME280;28584;42.636;23.294;2023-02-13T15:36:55;159078.03;;;1.95;100.00
42945;BME280;28584;42.636;23.294;2023-02-13T15:39:29;159074.03;;;1.94;100.00
42945;BME280;28584;42.636;23.294;2023-02-13T15:41:57;159052.84;;;1.86;100.00
42945;BME280;28584;42.636;23.294;2023-02-13T15:44:27;159035.56;;;1.79;100.00
42945;BME280;28584;42.636;23.294;2023-02-13T15:46:59;159026.31;;;1.76;100.00
42945;BME280;28584;42.636;23.294;2023-02-13T15:49:30;159023.63;;;1.75;100.00
42945;BME280;28584;42.636;23.294;2023-02-13T15:52:13;159022.31;;;1.74;100.00
42945;BME280;28584;42.636;23.294;2023-02-13T15:54:50;158975.88;;;1.57;100.00
42945;BME280;28584;42.636;23.294;2023-02-13T15:57:16;158946.72;;;1.46;100.00
42945;BME280;28584;42.636;23.294;2023-02-13T15:59:42;158940.09;;;1.43;100.00